Time;durP1;ratioP1;P1;durP2;ratioP2;P2;SDS_P1;SDS_P2;PMS_P1;PMS_P2;Temp;Humidity;BMP_temperature;BMP_pressure;BME280_temperature;BME280_humidity;BME280_pressure;Samples;Min_cycle;Max_cycle;Signal;HPM_P1;HPM_P2
2021/10/16 00:01:53;;;;;;;12.23;5.20;;;7.90;91.40;;;;;;5054826;28;20045;-74
2021/10/16 00:04:19;;;;;;;12.00;4.67;;;7.80;91.30;;;;;;5056144;28;20446;-75
2021/10/16 00:06:45;;;;;;;8.20;4.57;;;7.90;91.40;;;;;;5037923;28;20155;-74
2021/10/16 00:09:11;;;;;;;15.40;4.90;;;7.80;91.40;;;;;;5055535;28;20167;-73
2021/10/16 00:11:37;;;;;;;15.33;4.90;;;7.90;91.50;;;;;;5037983;28;20060;-74
2021/10/16 00:14:02;;;;;;;13.90;4.07;;;7.80;91.50;;;;;;5054750;28;20115;-74
2021/10/16 00:16:28;;;;;;;15.13;4.70;;;7.70;91.50;;;;;;5054589;28;20061;-73
2021/10/16 00:18:54;;;;;;;13.17;4.83;;;7.70;91.50;;;;;;5038187;28;20025;-74
2021/10/16 00:21:19;;;;;;;11.23;3.97;;;7.70;91.50;;;;;;5055804;28;20024;-73
2021/10/16 00:23:46;;;;;;;12.67;4.37;;;7.70;91.50;;;;;;5054363;28;20029;-73
2021/10/16 00:26:15;;;;;;;10.17;4.00;;;7.60;91.50;;;;;;5055482;28;20112;-73
2021/10/16 00:28:40;;;;;;;10.53;4.27;;;7.60;91.60;;;;;;5037462;28;20021;-73
2021/10/16 00:31:06;;;;;;;11.70;4.13;;;7.60;91.90;;;;;;5054074;28;20362;-73
2021/10/16 00:33:32;;;;;;;9.60;4.10;;;7.60;91.90;;;;;;5053912;28;20063;-73
2021/10/16 00:35:58;;;;;;;11.23;4.53;;;7.60;91.80;;;;;;5037324;28;20025;-74
2021/10/16 00:38:24;;;;;;;11.10;4.10;;;7.60;91.80;;;;;;5037247;28;20029;-73
2021/10/16 00:40:50;;;;;;;9.67;3.83;;;7.60;91.80;;;;;;5054209;28;20032;-74
2021/10/16 00:43:15;;;;;;;8.83;3.80;;;7.50;91.90;;;;;;5055231;28;20037;-74
2021/10/16 00:45:41;;;;;;;8.57;4.20;;;7.40;91.90;;;;;;5053982;28;20036;-74
2021/10/16 00:48:07;;;;;;;10.50;4.30;;;7.50;92.00;;;;;;5037194;28;20062;-74
2021/10/16 00:50:33;;;;;;;13.00;4.27;;;7.50;92.10;;;;;;5053802;28;20380;-74
2021/10/16 00:52:59;;;;;;;9.77;3.53;;;7.50;92.10;;;;;;5037315;28;20029;-73
2021/10/16 00:55:26;;;;;;;9.63;3.80;;;7.40;92.00;;;;;;5053901;28;20086;-74
2021/10/16 00:57:53;;;;;;;12.60;3.80;;;7.30;92.00;;;;;;5053809;28;20028;-74
2021/10/16 01:00:19;;;;;;;9.77;3.40;;;7.40;92.10;;;;;;5037017;28;20021;-73
2021/10/16 01:02:45;;;;;;;12.97;4.40;;;7.40;92.20;;;;;;5053569;28;20066;-74
2021/10/16 01:05:11;;;;;;;11.03;3.57;;;7.30;92.20;;;;;;5054733;28;20017;-74
2021/10/16 01:07:38;;;;;;;8.90;3.60;;;7.30;92.20;;;;;;5053379;28;20049;-74
2021/10/16 01:10:09;;;;;;;10.73;3.87;;;7.20;92.20;;;;;;5054338;28;20076;-74
2021/10/16 01:12:36;;;;;;;9.03;3.67;;;7.20;92.20;;;;;;5053150;28;20434;-74
2021/10/16 01:15:11;;;;;;;9.87;3.57;;;7.20;92.20;;;;;;5036913;28;20112;-74
2021/10/16 01:17:37;;;;;;;12.60;4.50;;;7.20;92.30;;;;;;5053317;28;20033;-74
2021/10/16 01:20:16;;;;;;;10.03;4.93;;;7.10;92.70;;;;;;5036852;28;20032;-74
2021/10/16 01:22:44;;;;;;;14.33;4.77;;;7.00;92.70;;;;;;5054569;28;20021;-74
2021/10/16 01:25:15;;;;;;;10.73;4.17;;;7.00;92.90;;;;;;5056512;28;20043;-74
2021/10/16 01:27:42;;;;;;;10.30;4.77;;;6.90;92.80;;;;;;5074095;28;20031;-73
2021/10/16 01:30:09;;;;;;;9.20;3.70;;;6.90;92.70;;;;;;5073106;28;20032;-73
2021/10/16 01:32:36;;;;;;;11.43;4.10;;;6.80;92.80;;;;;;5056095;28;20025;-73
2021/10/16 01:35:04;;;;;;;10.93;4.27;;;6.80;92.90;;;;;;5072941;28;20024;-73
2021/10/16 01:37:29;;;;;;;12.33;4.10;;;6.80;92.90;;;;;;5073172;28;20167;-73
2021/10/16 01:39:55;;;;;;;14.73;4.67;;;6.80;93.00;;;;;;5074058;28;20064;-73
2021/10/16 01:42:21;;;;;;;10.67;4.33;;;6.80;93.10;;;;;;5072789;28;20043;-73
2021/10/16 01:44:46;;;;;;;17.53;4.27;;;6.90;93.20;;;;;;5073785;28;20040;-73
2021/10/16 01:47:12;;;;;;;9.53;4.17;;;6.90;93.30;;;;;;5073721;28;20036;-74
2021/10/16 01:49:38;;;;;;;12.13;5.27;;;6.90;93.30;;;;;;5073023;28;20038;-73
2021/10/16 01:52:04;;;;;;;10.30;4.57;;;7.00;93.50;;;;;;5072698;28;20530;-73
2021/10/16 01:54:30;;;;;;;10.60;3.93;;;7.00;93.60;;;;;;5072600;28;20033;-73
2021/10/16 01:56:56;;;;;;;13.37;3.77;;;7.10;93.60;;;;;;5073704;28;20032;-73
2021/10/16 01:59:25;;;;;;;10.60;4.10;;;7.10;93.60;;;;;;5073372;28;20029;-73
2021/10/16 02:01:52;;;;;;;9.03;3.73;;;7.10;93.50;;;;;;5072154;28;20116;-73
2021/10/16 02:04:18;;;;;;;13.93;5.20;;;7.10;93.60;;;;;;5072751;28;20021;-73
2021/10/16 02:06:44;;;;;;;10.93;3.73;;;7.30;93.70;;;;;;5072269;28;20458;-73
2021/10/16 02:09:10;;;;;;;13.03;4.17;;;7.20;93.70;;;;;;5072003;28;20044;-73
2021/10/16 02:11:36;;;;;;;10.87;3.97;;;7.20;93.70;;;;;;5073246;28;20497;-73
2021/10/16 02:14:03;;;;;;;9.30;3.93;;;7.20;93.60;;;;;;5072380;28;20033;-74
2021/10/16 02:16:30;;;;;;;11.43;3.97;;;7.30;93.60;;;;;;5072518;28;20040;-74
2021/10/16 02:18:56;;;;;;;9.37;3.90;;;7.30;93.60;;;;;;5073330;28;20115;-74
2021/10/16 02:21:23;;;;;;;10.53;4.43;;;7.20;93.60;;;;;;5072006;28;20109;-75
2021/10/16 02:23:49;;;;;;;9.73;3.47;;;7.40;93.70;;;;;;5073469;28;20033;-75
2021/10/16 02:26:15;;;;;;;13.30;5.03;;;7.30;93.70;;;;;;5055916;28;20047;-73
2021/10/16 02:28:41;;;;;;;10.63;3.67;;;7.30;93.70;;;;;;5073402;28;20461;-75
2021/10/16 02:31:07;;;;;;;14.40;4.33;;;7.40;93.80;;;;;;5073601;28;20032;-75
2021/10/16 02:33:33;;;;;;;7.97;3.53;;;7.40;93.80;;;;;;5055413;28;20032;-75
2021/10/16 02:35:58;;;;;;;13.13;4.10;;;7.40;93.80;;;;;;5073444;28;20428;-76
2021/10/16 02:38:24;;;;;;;17.13;4.80;;;7.40;93.90;;;;;;5073520;28;20047;-76
2021/10/16 02:40:50;;;;;;;9.00;3.97;;;7.50;93.90;;;;;;5072347;28;20064;-76
2021/10/16 02:43:15;;;;;;;15.27;5.17;;;7.50;93.90;;;;;;5073610;28;20021;-76
2021/10/16 02:45:41;;;;;;;10.30;4.07;;;7.50;93.90;;;;;;5073416;28;20036;-76
2021/10/16 02:48:07;;;;;;;9.83;4.17;;;7.50;93.90;;;;;;5072490;28;20072;-76
2021/10/16 02:50:32;;;;;;;12.13;4.70;;;7.70;94.00;;;;;;5073671;28;20036;-76
2021/10/16 02:52:58;;;;;;;14.00;4.43;;;7.60;94.00;;;;;;5070764;28;20071;-76
2021/10/16 02:55:24;;;;;;;11.00;3.90;;;7.60;94.00;;;;;;5068259;28;20477;-76
2021/10/16 02:57:49;;;;;;;11.00;3.63;;;7.70;94.10;;;;;;5054358;28;20428;-76
2021/10/16 03:00:15;;;;;;;9.57;3.80;;;7.70;94.00;;;;;;5051614;28;20067;-76
2021/10/16 03:02:41;;;;;;;11.30;3.63;;;7.70;93.90;;;;;;5052829;28;20064;-76
2021/10/16 03:05:07;;;;;;;11.90;4.00;;;7.70;93.90;;;;;;5051899;28;20033;-76
2021/10/16 03:07:33;;;;;;;11.47;3.83;;;7.70;94.00;;;;;;5035526;28;20442;-76
2021/10/16 03:09:58;;;;;;;16.30;4.00;;;7.60;94.00;;;;;;5035088;28;20132;-76
2021/10/16 03:12:24;;;;;;;12.30;3.80;;;7.70;94.00;;;;;;5055549;28;20039;-76
2021/10/16 03:14:50;;;;;;;8.93;3.30;;;7.80;94.30;;;;;;5055756;28;20060;-76
2021/10/16 03:17:16;;;;;;;10.07;3.60;;;7.80;94.00;;;;;;5057036;28;20072;-76
2021/10/16 03:19:42;;;;;;;13.13;3.53;;;7.70;94.00;;;;;;5056723;28;20021;-76
2021/10/16 03:22:10;;;;;;;8.80;3.50;;;7.80;94.40;;;;;;5038891;28;20025;-75
2021/10/16 03:24:37;;;;;;;11.47;3.97;;;7.80;94.10;;;;;;5055850;28;20416;-75
2021/10/16 03:27:04;;;;;;;9.97;2.90;;;7.90;94.20;;;;;;5038920;28;20079;-75
2021/10/16 03:29:30;;;;;;;14.23;3.50;;;7.80;94.10;;;;;;5056569;28;20028;-75
2021/10/16 03:31:56;;;;;;;8.27;3.10;;;7.90;94.20;;;;;;5070971;28;20460;-75
2021/10/16 03:34:22;;;;;;;11.03;3.57;;;8.00;94.20;;;;;;5076355;28;20029;-74
2021/10/16 03:36:48;;;;;;;9.53;3.50;;;8.00;94.20;;;;;;5076287;28;20033;-74
2021/10/16 03:39:13;;;;;;;10.63;4.13;;;8.00;94.20;;;;;;5076483;28;20094;-75
2021/10/16 03:41:39;;;;;;;9.03;3.57;;;8.00;94.20;;;;;;5061417;28;20033;-75
2021/10/16 03:44:05;;;;;;;10.63;3.93;;;8.00;94.20;;;;;;5056100;28;20031;-75
2021/10/16 03:46:31;;;;;;;10.47;3.17;;;8.10;94.30;;;;;;5045127;28;20545;-75
2021/10/16 03:48:56;;;;;;;7.93;3.27;;;8.10;94.50;;;;;;5064150;28;20033;-75
2021/10/16 03:51:22;;;;;;;9.57;3.33;;;8.10;94.20;;;;;;5059309;28;20032;-75
2021/10/16 03:53:48;;;;;;;10.83;3.33;;;8.10;94.30;;;;;;5054609;28;20037;-75
2021/10/16 03:56:13;;;;;;;10.47;3.60;;;8.20;94.30;;;;;;5055674;28;20875;-75
2021/10/16 03:58:40;;;;;;;22.70;3.60;;;8.20;94.30;;;;;;5055835;28;20037;-75
2021/10/16 04:01:06;;;;;;;11.83;3.53;;;8.20;94.60;;;;;;5055897;28;20112;-75
2021/10/16 04:03:31;;;;;;;11.13;3.40;;;8.20;94.30;;;;;;5056068;28;20056;-75
2021/10/16 04:05:57;;;;;;;8.07;3.00;;;8.30;94.30;;;;;;5054601;28;20021;-75
2021/10/16 04:08:23;;;;;;;14.70;3.47;;;8.30;94.40;;;;;;5055560;28;20489;-75
2021/10/16 04:10:49;;;;;;;12.97;3.90;;;8.40;94.40;;;;;;5055884;28;20128;-76
2021/10/16 04:13:15;;;;;;;11.13;3.70;;;8.30;94.40;;;;;;5073941;28;20418;-76
2021/10/16 04:15:40;;;;;;;13.40;4.30;;;8.40;94.50;;;;;;5075560;28;20107;-76
2021/10/16 04:18:06;;;;;;;10.10;3.30;;;8.30;94.50;;;;;;5054380;28;20445;-78
2021/10/16 04:20:33;;;;;;;12.73;4.03;;;8.40;94.50;;;;;;5073701;28;20499;-75
2021/10/16 04:22:59;;;;;;;13.43;3.90;;;8.40;94.50;;;;;;5075196;28;20025;-74
2021/10/16 04:25:25;;;;;;;12.67;3.50;;;8.50;94.50;;;;;;5075628;28;20032;-75
2021/10/16 04:27:50;;;;;;;12.27;3.70;;;8.50;94.50;;;;;;5057315;28;20024;-75
2021/10/16 04:30:16;;;;;;;8.63;3.47;;;8.70;94.60;;;;;;5074479;28;20074;-76
2021/10/16 04:32:42;;;;;;;8.77;3.47;;;8.60;94.60;;;;;;5058187;28;20039;-77
2021/10/16 04:35:09;;;;;;;9.57;3.07;;;8.50;94.40;;;;;;5074027;28;20029;-76
2021/10/16 04:37:35;;;;;;;10.43;3.60;;;8.60;94.50;;;;;;5073859;28;20033;-76
2021/10/16 04:40:21;;;;;;;14.60;3.83;;;8.50;94.50;;;;;;5071806;28;20032;-77
2021/10/16 04:42:49;;;;;;;9.77;3.50;;;8.60;94.50;;;;;;5060771;28;20377;-76
2021/10/16 04:45:15;;;;;;;9.97;3.93;;;8.70;94.60;;;;;;5074803;28;20033;-76
2021/10/16 04:47:41;;;;;;;13.80;4.23;;;8.70;94.50;;;;;;5073100;28;20096;-76
2021/10/16 04:50:08;;;;;;;13.80;4.57;;;8.80;94.50;;;;;;5051817;28;20032;-76
2021/10/16 04:52:34;;;;;;;7.30;2.80;;;8.70;94.50;;;;;;5053074;28;20033;-76
2021/10/16 04:55:00;;;;;;;11.70;3.60;;;8.70;94.50;;;;;;5053608;28;20027;-76
2021/10/16 04:57:25;;;;;;;9.43;3.40;;;8.70;94.50;;;;;;5054727;28;20095;-76
2021/10/16 04:59:51;;;;;;;7.57;3.10;;;8.70;94.40;;;;;;5069976;28;20028;-76
2021/10/16 05:02:17;;;;;;;18.37;3.33;;;8.60;94.50;;;;;;5055220;28;20033;-76
2021/10/16 05:04:42;;;;;;;9.17;3.40;;;8.70;94.50;;;;;;5053241;28;20060;-76
2021/10/16 05:07:08;;;;;;;10.47;2.77;;;8.70;94.50;;;;;;5062100;28;20473;-76
2021/10/16 05:09:34;;;;;;;9.10;3.40;;;8.70;94.50;;;;;;5073248;28;20049;-76
2021/10/16 05:11:59;;;;;;;13.93;4.07;;;8.70;94.50;;;;;;5059013;28;20407;-76
2021/10/16 05:14:25;;;;;;;12.27;3.47;;;8.70;94.50;;;;;;5053117;28;20116;-77
2021/10/16 05:16:51;;;;;;;14.10;3.43;;;8.70;94.70;;;;;;5053131;28;20492;-76
2021/10/16 05:19:16;;;;;;;8.97;3.40;;;8.80;94.80;;;;;;5053202;28;20039;-76
2021/10/16 05:21:42;;;;;;;13.97;3.30;;;8.80;94.50;;;;;;5036851;28;20025;-76
2021/10/16 05:24:08;;;;;;;9.50;3.13;;;8.80;94.60;;;;;;5053315;28;20550;-77
2021/10/16 05:26:34;;;;;;;9.40;2.57;;;8.80;94.60;;;;;;5054186;28;20040;-77
2021/10/16 05:29:00;;;;;;;11.53;3.37;;;8.80;94.60;;;;;;5053165;28;20055;-77
2021/10/16 05:31:25;;;;;;;10.57;3.77;;;8.90;94.70;;;;;;5054198;28;20037;-77
2021/10/16 05:33:51;;;;;;;11.93;3.53;;;8.90;94.70;;;;;;5035491;28;20040;-76
2021/10/16 05:36:17;;;;;;;13.00;3.93;;;8.90;94.60;;;;;;5053777;28;20368;-76
2021/10/16 05:38:42;;;;;;;13.00;4.07;;;9.00;94.60;;;;;;5054251;28;20403;-76
2021/10/16 05:41:08;;;;;;;11.87;4.27;;;8.90;94.70;;;;;;5036448;28;20075;-76
2021/10/16 05:43:34;;;;;;;12.57;3.73;;;8.90;94.50;;;;;;5054106;28;20017;-76
2021/10/16 05:46:01;;;;;;;14.37;4.60;;;9.00;94.60;;;;;;5052949;28;20067;-75
2021/10/16 05:48:31;;;;;;;16.07;5.33;;;8.90;94.50;;;;;;5036466;28;20033;-76
2021/10/16 05:50:58;;;;;;;11.83;3.87;;;9.00;94.50;;;;;;5052784;28;20424;-75
2021/10/16 05:53:24;;;;;;;12.33;3.67;;;9.00;94.40;;;;;;5052617;28;20368;-76
2021/10/16 05:55:49;;;;;;;18.83;4.33;;;9.00;94.40;;;;;;5053800;28;20033;-76
2021/10/16 05:58:15;;;;;;;11.23;3.77;;;9.00;94.40;;;;;;5035815;28;20024;-76
2021/10/16 06:00:41;;;;;;;11.27;3.53;;;9.00;94.30;;;;;;5035689;28;20036;-75
2021/10/16 06:03:06;;;;;;;8.93;3.60;;;9.00;94.30;;;;;;5035721;28;20104;-76
2021/10/16 06:05:35;;;;;;;15.20;3.20;;;9.00;94.30;;;;;;5035813;28;20110;-76
2021/10/16 06:08:00;;;;;;;14.33;4.23;;;9.00;94.30;;;;;;5069334;28;20020;-76
2021/10/16 06:10:26;;;;;;;14.53;3.97;;;8.90;94.30;;;;;;5072227;28;20056;-75
2021/10/16 06:12:52;;;;;;;10.03;3.67;;;8.90;94.30;;;;;;5073558;28;20364;-76
2021/10/16 06:15:17;;;;;;;9.57;3.47;;;9.10;94.40;;;;;;5072281;28;20081;-76
2021/10/16 06:17:43;;;;;;;10.87;3.43;;;9.00;94.40;;;;;;5073382;28;20369;-76
2021/10/16 06:20:09;;;;;;;9.33;3.37;;;9.10;94.40;;;;;;5072515;28;20469;-76
2021/10/16 06:22:35;;;;;;;15.47;4.27;;;9.00;94.30;;;;;;5055495;28;20023;-76
2021/10/16 06:25:00;;;;;;;11.67;3.60;;;9.10;94.40;;;;;;5055347;28;20016;-75
2021/10/16 06:27:26;;;;;;;12.70;3.97;;;9.10;94.40;;;;;;5072024;28;20392;-76
2021/10/16 06:29:53;;;;;;;13.13;3.80;;;9.10;94.40;;;;;;5072298;28;20029;-77
2021/10/16 06:32:19;;;;;;;8.63;3.10;;;9.10;94.80;;;;;;5072198;28;20476;-75
2021/10/16 06:34:44;;;;;;;12.63;3.63;;;9.20;94.50;;;;;;5055476;28;20127;-75
2021/10/16 06:37:10;;;;;;;11.10;4.17;;;9.20;94.60;;;;;;5071981;28;20460;-75
2021/10/16 06:39:36;;;;;;;10.60;3.30;;;9.20;94.40;;;;;;5073040;28;20047;-76
2021/10/16 06:42:01;;;;;;;16.50;3.57;;;9.20;94.40;;;;;;5073254;28;20024;-76
2021/10/16 06:44:27;;;;;;;9.60;3.07;;;9.20;94.30;;;;;;5072916;28;20021;-73
2021/10/16 06:46:53;;;;;;;16.83;3.93;;;9.30;94.40;;;;;;5073016;28;20115;-74
2021/10/16 06:49:18;;;;;;;12.43;3.33;;;9.30;94.40;;;;;;5068732;28;20419;-75
2021/10/16 06:51:44;;;;;;;12.20;3.70;;;9.30;94.40;;;;;;5065467;28;20068;-75
2021/10/16 06:54:17;;;;;;;11.73;3.60;;;9.30;94.40;;;;;;5056041;28;20495;-75
2021/10/16 06:56:42;;;;;;;9.43;3.33;;;9.30;94.40;;;;;;5056196;28;20139;-75
2021/10/16 06:59:08;;;;;;;9.50;4.00;;;9.30;94.40;;;;;;5057216;28;20496;-74
2021/10/16 07:01:33;;;;;;;9.03;3.37;;;9.40;94.40;;;;;;5039448;28;20078;-74
2021/10/16 07:03:59;;;;;;;12.27;3.43;;;9.30;94.40;;;;;;5039054;28;20381;-74
2021/10/16 07:06:25;;;;;;;9.27;3.63;;;9.50;94.40;;;;;;5067390;28;20036;-75
2021/10/16 07:08:50;;;;;;;16.33;3.93;;;9.50;94.40;;;;;;5073255;28;20147;-75
2021/10/16 07:11:16;;;;;;;13.60;3.63;;;9.60;94.40;;;;;;5071833;28;20044;-75
2021/10/16 07:13:42;;;;;;;12.50;4.30;;;9.50;94.40;;;;;;5055388;28;20040;-75
2021/10/16 07:16:08;;;;;;;10.20;3.63;;;9.60;94.40;;;;;;5056596;28;20040;-75
2021/10/16 07:18:34;;;;;;;9.07;3.00;;;9.60;94.40;;;;;;5056700;28;20036;-75
2021/10/16 07:20:59;;;;;;;11.80;3.77;;;9.70;94.40;;;;;;5062275;28;20013;-75
2021/10/16 07:23:28;;;;;;;14.63;3.40;;;9.70;94.40;;;;;;5040356;28;20025;-76
2021/10/16 07:25:55;;;;;;;9.37;3.97;;;9.70;94.30;;;;;;5069817;28;20029;-75
2021/10/16 07:28:21;;;;;;;16.47;4.07;;;9.80;94.30;;;;;;5058760;28;20067;-77
2021/10/16 07:30:47;;;;;;;20.33;4.17;;;9.70;94.10;;;;;;5057567;28;20024;-77
2021/10/16 07:33:13;;;;;;;14.97;3.37;;;9.90;94.10;;;;;;5060540;28;20017;-78
2021/10/16 07:35:41;;;;;;;16.37;4.43;;;9.90;94.10;;;;;;5034993;28;20397;-78
2021/10/16 07:38:06;;;;;;;13.33;3.33;;;9.90;94.00;;;;;;5054989;28;20090;-78
2021/10/16 07:40:32;;;;;;;11.57;3.70;;;10.00;94.00;;;;;;5056333;28;20029;-77
2021/10/16 07:42:58;;;;;;;11.00;3.40;;;9.90;93.90;;;;;;5038393;28;20029;-77
2021/10/16 07:45:24;;;;;;;13.77;3.43;;;10.00;94.10;;;;;;5056024;28;20028;-76
2021/10/16 07:47:50;;;;;;;9.43;3.30;;;10.00;93.80;;;;;;5059628;28;20017;-75
2021/10/16 07:50:16;;;;;;;15.30;4.00;;;10.20;93.80;;;;;;5075044;28;20032;-75
2021/10/16 07:52:42;;;;;;;8.33;3.40;;;10.20;93.70;;;;;;5041719;28;20021;-75
2021/10/16 07:55:07;;;;;;;12.13;3.50;;;10.20;93.80;;;;;;5058131;28;20024;-75
2021/10/16 07:57:33;;;;;;;14.90;3.63;;;10.30;93.50;;;;;;5057418;28;20024;-75
2021/10/16 07:59:59;;;;;;;10.43;3.73;;;10.30;93.40;;;;;;5072967;28;20017;-75
2021/10/16 08:02:24;;;;;;;12.93;3.47;;;10.40;93.30;;;;;;5054698;28;20032;-76
2021/10/16 08:04:50;;;;;;;8.47;3.23;;;10.40;93.20;;;;;;5054611;28;20128;-76
2021/10/16 08:07:15;;;;;;;9.90;3.20;;;10.40;93.10;;;;;;5037980;28;20036;-75
2021/10/16 08:09:41;;;;;;;11.10;3.13;;;10.40;93.00;;;;;;5054544;28;20072;-75
2021/10/16 08:12:07;;;;;;;9.57;3.43;;;10.40;92.90;;;;;;5037912;28;20029;-76
2021/10/16 08:14:32;;;;;;;9.50;2.97;;;10.50;92.90;;;;;;5055654;28;20040;-75
2021/10/16 08:16:58;;;;;;;17.23;3.60;;;10.50;92.80;;;;;;5055341;28;20469;-76
2021/10/16 08:19:24;;;;;;;10.57;3.23;;;10.60;92.80;;;;;;5055654;28;20032;-75
2021/10/16 08:21:49;;;;;;;11.17;2.87;;;10.60;92.80;;;;;;5073468;28;20028;-74
2021/10/16 08:24:15;;;;;;;12.73;3.77;;;10.70;92.70;;;;;;5074285;28;20038;-74
2021/10/16 08:26:41;;;;;;;15.53;4.30;;;10.70;92.60;;;;;;5057454;28;20020;-74
2021/10/16 08:29:06;;;;;;;10.50;2.87;;;10.80;92.50;;;;;;5040660;28;20081;-75
2021/10/16 08:31:32;;;;;;;11.73;3.47;;;10.80;92.40;;;;;;5074035;28;20037;-75
2021/10/16 08:33:57;;;;;;;10.87;2.80;;;10.90;92.30;;;;;;5074127;28;20774;-74
2021/10/16 08:36:23;;;;;;;11.33;2.67;;;10.90;92.30;;;;;;5073924;28;20036;-74
2021/10/16 08:38:52;;;;;;;12.07;3.57;;;10.90;92.20;;;;;;5074015;28;20035;-74
2021/10/16 08:41:18;;;;;;;7.80;2.13;;;11.00;92.20;;;;;;5057606;28;20534;-74
2021/10/16 08:43:44;;;;;;;13.27;3.27;;;11.00;92.20;;;;;;5073360;28;20077;-74
2021/10/16 08:46:11;;;;;;;10.47;2.60;;;11.20;91.90;;;;;;5073676;28;20123;-76
2021/10/16 08:48:40;;;;;;;11.52;2.90;;;11.20;91.80;;;;;;5074172;28;20029;-76
2021/10/16 08:51:07;;;;;;;13.73;3.17;;;11.20;91.70;;;;;;5074057;28;20024;-77
2021/10/16 08:53:32;;;;;;;10.27;2.87;;;11.30;91.60;;;;;;5075426;28;20052;-76
2021/10/16 08:56:04;;;;;;;8.52;2.65;;;11.40;91.60;;;;;;5056890;28;20056;-76
2021/10/16 08:58:30;;;;;;;8.70;2.70;;;11.40;91.60;;;;;;5057876;28;20028;-76
2021/10/16 09:00:56;;;;;;;13.55;3.08;;;11.40;91.50;;;;;;5073680;28;20044;-75
2021/10/16 09:03:28;;;;;;;9.38;2.42;;;11.50;91.50;;;;;;5072303;28;20067;-74
2021/10/16 09:05:56;;;;;;;9.57;2.70;;;11.50;91.40;;;;;;5074633;28;20021;-74
2021/10/16 09:08:33;;;;;;;6.85;1.95;;;11.60;91.30;;;;;;5072062;28;20074;-74
2021/10/16 09:11:24;;;;;;;12.38;2.78;;;11.60;91.20;;;;;;5054526;28;20171;-74
2021/10/16 09:13:59;;;;;;;7.35;2.58;;;11.70;91.20;;;;;;5053022;28;20120;-74
2021/10/16 09:16:29;;;;;;;8.35;2.80;;;11.70;91.00;;;;;;5053344;28;20029;-77
2021/10/16 09:19:03;;;;;;;12.38;3.05;;;11.80;91.00;;;;;;5054376;28;20047;-76
2021/10/16 09:21:30;;;;;;;10.55;2.60;;;11.80;90.90;;;;;;5053713;28;20485;-76
2021/10/16 09:24:17;;;;;;;9.32;2.40;;;11.90;90.80;;;;;;5036832;28;20094;-76
2021/10/16 09:26:46;;;;;;;8.00;2.28;;;12.00;90.70;;;;;;5054448;28;20021;-76
2021/10/16 09:29:13;;;;;;;6.20;2.60;;;12.10;90.70;;;;;;5053223;28;20021;-76
2021/10/16 09:31:52;;;;;;;12.90;2.80;;;12.10;90.60;;;;;;5036435;28;20116;-76
2021/10/16 09:34:29;;;;;;;11.35;2.92;;;12.30;90.70;;;;;;5037772;28;20063;-75
2021/10/16 09:37:14;;;;;;;12.65;2.30;;;12.20;90.30;;;;;;5054281;28;20025;-75
2021/10/16 09:40:01;;;;;;;7.50;1.98;;;12.30;90.20;;;;;;5052886;28;20013;-76
2021/10/16 09:42:45;;;;;;;16.08;3.05;;;12.30;90.00;;;;;;5052750;28;20021;-76
2021/10/16 09:45:14;;;;;;;10.93;2.20;;;12.40;89.90;;;;;;5052645;28;20404;-75
2021/10/16 09:47:56;;;;;;;11.52;2.42;;;12.40;89.00;;;;;;5053953;28;20472;-74
2021/10/16 09:50:23;;;;;;;12.27;2.45;;;12.50;88.80;;;;;;5053970;28;20051;-75
2021/10/16 09:52:50;;;;;;;11.25;2.65;;;12.50;88.40;;;;;;5063135;28;20029;-74
2021/10/16 09:55:16;;;;;;;9.75;2.25;;;12.50;88.00;;;;;;5067613;28;20061;-74
2021/10/16 09:57:43;;;;;;;15.77;3.08;;;12.60;88.00;;;;;;5067583;28;20110;-76
2021/10/16 10:00:10;;;;;;;12.40;2.80;;;12.60;87.50;;;;;;5071877;28;20098;-76
2021/10/16 10:02:36;;;;;;;12.90;2.47;;;12.60;87.60;;;;;;5073382;28;20016;-75
2021/10/16 10:05:05;;;;;;;10.07;2.67;;;12.50;87.60;;;;;;5071993;28;20024;-74
2021/10/16 10:07:34;;;;;;;10.75;2.28;;;12.60;87.40;;;;;;5073869;28;20457;-74
2021/10/16 10:10:00;;;;;;;13.75;2.38;;;12.70;87.40;;;;;;5073316;28;20048;-75
2021/10/16 10:12:27;;;;;;;10.30;2.55;;;12.70;87.10;;;;;;5072461;28;20102;-76
2021/10/16 10:14:54;;;;;;;11.20;2.85;;;12.70;86.80;;;;;;5072397;28;20101;-75
2021/10/16 10:17:30;;;;;;;8.65;2.20;;;12.80;86.60;;;;;;5072023;28;20052;-75
2021/10/16 10:20:00;;;;;;;11.88;2.05;;;12.90;86.40;;;;;;5063183;28;20020;-75
2021/10/16 10:22:31;;;;;;;11.55;2.15;;;12.80;85.90;;;;;;5053184;28;20116;-74
2021/10/16 10:24:57;;;;;;;10.55;1.63;;;12.90;85.60;;;;;;5053251;28;20100;-76
2021/10/16 10:27:24;;;;;;;14.25;2.20;;;12.90;85.30;;;;;;5035114;28;20057;-76
2021/10/16 10:29:53;;;;;;;10.90;2.05;;;13.00;84.90;;;;;;5063406;28;20079;-76
2021/10/16 10:32:24;;;;;;;10.10;2.75;;;13.00;85.00;;;;;;5065495;28;20051;-76
2021/10/16 10:35:03;;;;;;;6.55;1.58;;;13.10;85.10;;;;;;5064701;28;20024;-76
2021/10/16 10:37:41;;;;;;;8.15;1.55;;;13.20;85.20;;;;;;5072129;28;20028;-74
2021/10/16 10:40:15;;;;;;;14.52;2.53;;;13.30;84.70;;;;;;5070662;28;20013;-74
2021/10/16 10:42:50;;;;;;;12.25;2.40;;;13.30;84.50;;;;;;5066036;28;20021;-75
2021/10/16 10:45:26;;;;;;;10.43;1.77;;;13.40;84.10;;;;;;5061362;28;20025;-76
2021/10/16 10:48:08;;;;;;;11.85;2.63;;;13.50;83.50;;;;;;5057355;28;20021;-74
2021/10/16 10:50:45;;;;;;;18.23;3.35;;;13.50;82.50;;;;;;5053180;28;20017;-74
2021/10/16 10:53:20;;;;;;;11.98;1.92;;;13.50;82.00;;;;;;5065959;28;20366;-76
2021/10/16 10:55:59;;;;;;;10.90;1.85;;;13.50;81.40;;;;;;5071634;28;20103;-75
2021/10/16 10:58:51;;;;;;;12.90;2.33;;;13.60;81.70;;;;;;5071002;28;20031;-74
2021/10/16 11:01:44;;;;;;;9.25;1.63;;;13.70;81.60;;;;;;5067141;28;20548;-73
2021/10/16 11:04:30;;;;;;;11.75;2.20;;;13.90;81.40;;;;;;5052685;28;20040;-74
2021/10/16 11:06:58;;;;;;;9.77;2.10;;;14.00;81.20;;;;;;5051706;28;20029;-73
2021/10/16 11:09:24;;;;;;;11.10;3.00;;;14.10;80.90;;;;;;5051766;28;20051;-74
2021/10/16 11:11:50;;;;;;;10.90;2.45;;;14.20;80.60;;;;;;5052670;28;20044;-74
2021/10/16 11:14:17;;;;;;;10.55;2.15;;;14.40;80.40;;;;;;5052846;28;20083;-73
2021/10/16 11:16:53;;;;;;;8.82;2.25;;;14.50;80.40;;;;;;5051833;28;20588;-75
2021/10/16 11:19:18;;;;;;;10.10;1.55;;;14.70;80.10;;;;;;5051506;28;20028;-74
2021/10/16 11:21:51;;;;;;;9.82;1.85;;;14.90;79.40;;;;;;5051746;28;20454;-74
2021/10/16 11:24:17;;;;;;;12.85;2.20;;;14.90;77.60;;;;;;5052948;28;20021;-73
2021/10/16 11:26:56;;;;;;;7.55;1.85;;;15.10;77.40;;;;;;5065411;28;20037;-74
2021/10/16 11:29:36;;;;;;;12.82;2.00;;;15.20;76.50;;;;;;5069683;28;20507;-74
2021/10/16 11:32:13;;;;;;;11.50;2.17;;;15.40;75.70;;;;;;5061000;28;20470;-74
2021/10/16 11:34:39;;;;;;;13.20;2.05;;;15.70;75.00;;;;;;5064812;28;20975;-73
2021/10/16 11:37:05;;;;;;;10.32;1.73;;;16.00;74.90;;;;;;5058292;28;20072;-75
2021/10/16 11:39:30;;;;;;;11.05;2.15;;;16.40;74.90;;;;;;5071769;28;20086;-75
2021/10/16 11:41:56;;;;;;;10.82;2.10;;;16.70;74.00;;;;;;5055127;28;20064;-70
2021/10/16 11:44:22;;;;;;;7.55;1.73;;;17.20;73.40;;;;;;5065001;28;20441;-76
2021/10/16 11:47:05;;;;;;;7.53;1.45;;;17.50;72.80;;;;;;5072164;28;20052;-75
2021/10/16 11:49:31;;;;;;;6.40;1.35;;;17.60;71.30;;;;;;5074089;28;20028;-76
2021/10/16 11:51:57;;;;;;;6.05;1.73;;;17.70;71.30;;;;;;5041845;28;20498;-75
2021/10/16 11:54:23;;;;;;;8.07;1.30;;;17.80;70.90;;;;;;5075961;28;20025;-74
2021/10/16 11:56:58;;;;;;;7.63;1.50;;;17.90;69.20;;;;;;5076107;28;20064;-76
2021/10/16 11:59:24;;;;;;;11.50;1.52;;;18.10;67.80;;;;;;5057617;28;20055;-75
2021/10/16 12:01:50;;;;;;;9.40;1.98;;;18.30;67.60;;;;;;5070618;28;20461;-76
2021/10/16 12:04:16;;;;;;;7.55;1.30;;;18.40;66.70;;;;;;5070578;28;20028;-76
2021/10/16 12:06:42;;;;;;;7.05;2.00;;;18.50;65.40;;;;;;5058029;28;20380;-76
2021/10/16 12:09:12;;;;;;;9.68;1.85;;;18.50;64.30;;;;;;5074370;28;20557;-75
2021/10/16 12:11:38;;;;;;;10.30;2.15;;;18.50;63.70;;;;;;5075955;28;20519;-76
2021/10/16 12:14:12;;;;;;;6.82;1.33;;;18.40;63.30;;;;;;5074626;28;20456;-76
2021/10/16 12:16:43;;;;;;;7.50;1.45;;;18.40;62.90;;;;;;5074327;28;20032;-75
2021/10/16 12:19:14;;;;;;;9.70;1.77;;;18.30;62.50;;;;;;5075937;28;20082;-76
2021/10/16 12:21:45;;;;;;;7.55;1.40;;;18.30;62.30;;;;;;5059855;28;20032;-76
2021/10/16 12:24:12;;;;;;;6.45;1.30;;;18.20;62.20;;;;;;5055834;28;20021;-75
2021/10/16 12:26:38;;;;;;;9.65;1.80;;;18.10;62.20;;;;;;5055406;28;20499;-75
2021/10/16 12:29:07;;;;;;;9.38;1.67;;;18.10;62.10;;;;;;5055482;28;20489;-75
2021/10/16 12:31:48;;;;;;;8.52;1.73;;;18.00;61.70;;;;;;5062682;28;20029;-75
2021/10/16 12:34:28;;;;;;;9.25;1.85;;;17.90;61.40;;;;;;5058068;28;20056;-76
2021/10/16 12:37:02;;;;;;;9.90;1.60;;;17.80;61.10;;;;;;5055326;28;20036;-73
2021/10/16 12:39:38;;;;;;;7.75;1.48;;;17.70;61.20;;;;;;5055181;28;20025;-77
2021/10/16 12:42:15;;;;;;;6.93;1.70;;;17.50;60.60;;;;;;5055164;28;20021;-75
2021/10/16 12:45:07;;;;;;;10.77;1.63;;;17.40;61.10;;;;;;5061776;28;20116;-74
2021/10/16 12:47:33;;;;;;;8.57;1.67;;;17.40;61.30;;;;;;5078391;28;20029;-74
2021/10/16 12:50:03;;;;;;;9.80;2.20;;;17.30;61.30;;;;;;5053749;28;20029;-75